CheckWX is a tool to help pilots better visualize weather data.  It is not intended as a substitute for an official pre-flight weather briefing.

07:16:49 UTC

KCLL TAF
Easterwood Field Airport
College Station, Texas, USA
KCLL 051144Z 0512/0612 34004KT 2SM BR OVC002 TEMPO 0512/0514 3SM BR OVC005 FM051500 VRB03KT 6SM BR BKN009 FM051900 06003KT P6SM BKN025 FM052200 09003KT P6SM SCT029 BKN035 FM060100 12004KT P6SM OVC050 FM060600 00000KT 6SM BR OVC015

Apr-5@
12:00 UTC

Apr-5 @ 12:00 UTC

Apr-5@
15:00 UTC

Apr-5 @ 15:00 UTC

TAF KCLL 051144Z 0512/0612 34004KT 2SM BR OVC002

Expired

Wind
  • 340° at 4 KTS
Conditions
Mist
Cloud Levels
  • Overcast at 200' AGL

Apr-5@
12:00 UTC

Apr-5 @ 12:00 UTC

Apr-5@
14:00 UTC

Apr-5 @ 14:00 UTC

TEMPO 0512/0514 3SM BR OVC005

Expired

Conditions
Mist
Cloud Levels
  • Overcast at 500' AGL

Apr-5@
15:00 UTC

Apr-5 @ 15:00 UTC

Apr-5@
19:00 UTC

Apr-5 @ 19:00 UTC

FM051500 VRB03KT 6SM BR BKN009

Expired

Wind
  • Variable at 3 KTS
Conditions
Mist
Cloud Levels
  • Broken at 900' AGL

Apr-5@
19:00 UTC

Apr-5 @ 19:00 UTC

Apr-5@
22:00 UTC

Apr-5 @ 22:00 UTC

FM051900 06003KT P6SM BKN025

Expired

Wind
  • 060° at 3 KTS
Cloud Levels
  • Broken at 2,500' AGL

Apr-5@
22:00 UTC

Apr-5 @ 22:00 UTC

Apr-6@
01:00 UTC

Apr-6 @ 01:00 UTC

FM052200 09003KT P6SM SCT029 BKN035

Expired

Wind
  • 090° at 3 KTS
Cloud Levels
  • Scattered at 2,900' AGL
  • Broken at 3,500' AGL

Apr-6@
01:00 UTC

Apr-6 @ 01:00 UTC

Apr-6@
06:00 UTC

Apr-6 @ 06:00 UTC

FM060100 12004KT P6SM OVC050

Expired

Wind
  • 120° at 4 KTS
Cloud Levels
  • Overcast at 5,000' AGL

Apr-6@
06:00 UTC

Apr-6 @ 06:00 UTC

Apr-6@
12:00 UTC

Apr-6 @ 12:00 UTC

FM060600 00000KT 6SM BR OVC015

From

From Standard forecast or significant change

Conditions
Mist
Cloud Levels
  • Overcast at 1,500' AGL